createdAt,value
2022-11-27T00:00:14.828Z,63.98
2022-11-27T00:02:42.645Z,63.83
2022-11-27T00:05:12.012Z,64.69
2022-11-27T00:07:39.857Z,65.34
2022-11-27T00:10:08.771Z,65.89
2022-11-27T00:12:36.626Z,66.29
2022-11-27T00:15:05.395Z,66.31
2022-11-27T00:17:33.251Z,66.45
2022-11-27T00:20:01.104Z,67.03
2022-11-27T00:22:30.521Z,67.71
2022-11-27T00:24:58.275Z,67.71
2022-11-27T00:27:26.127Z,67.46
2022-11-27T00:29:53.935Z,67.59
2022-11-27T00:32:21.704Z,68.10
2022-11-27T00:34:49.510Z,67.69
2022-11-27T00:37:17.222Z,66.53
2022-11-27T00:39:46.436Z,66.47
2022-11-27T00:42:14.286Z,67.46
2022-11-27T00:44:42.172Z,67.20
2022-11-27T00:47:10.031Z,68.28
2022-11-27T00:49:37.839Z,68.50
2022-11-27T00:52:05.957Z,67.79
2022-11-27T00:54:33.665Z,67.37
2022-11-27T00:57:02.873Z,66.86
2022-11-27T00:59:30.720Z,66.57
2022-11-27T01:01:58.549Z,66.61
2022-11-27T01:04:26.320Z,66.13
2022-11-27T01:06:54.117Z,66.11
2022-11-27T01:09:21.905Z,65.32
2022-11-27T01:11:49.627Z,64.92
2022-11-27T01:14:19.722Z,64.63
2022-11-27T01:16:47.720Z,64.09
2022-11-27T01:19:16.015Z,64.25
2022-11-27T01:21:43.983Z,64.54
2022-11-27T01:24:13.723Z,64.28
2022-11-27T01:26:41.575Z,63.97
2022-11-27T01:29:09.384Z,63.86
2022-11-27T01:31:38.657Z,64.03
2022-11-27T01:34:07.932Z,63.72
2022-11-27T01:36:36.493Z,63.57
2022-11-27T01:39:04.777Z,63.40
2022-11-27T01:41:35.131Z,63.82
2022-11-27T01:44:05.103Z,63.20
2022-11-27T01:46:36.795Z,63.57
2022-11-27T01:49:23.517Z,63.17
2022-11-27T01:51:56.502Z,63.54
2022-11-27T01:54:26.957Z,63.92
2022-11-27T01:56:57.174Z,64.45
2022-11-27T01:59:25.359Z,65.21
2022-11-27T02:01:53.209Z,65.18
2022-11-27T02:04:22.490Z,65.48
2022-11-27T02:06:50.248Z,64.53
2022-11-27T02:09:18.023Z,64.19
2022-11-27T02:11:51.941Z,64.10
2022-11-27T02:14:25.247Z,64.26
2022-11-27T02:16:58.696Z,65.67
2022-11-27T02:19:39.149Z,66.74
2022-11-27T02:22:09.664Z,66.87
2022-11-27T02:24:49.671Z,67.02
2022-11-27T02:27:35.338Z,67.11
2022-11-27T02:30:06.475Z,66.73
2022-11-27T02:32:38.675Z,65.88
2022-11-27T02:35:10.700Z,65.21
2022-11-27T02:37:43.281Z,64.78
2022-11-27T02:40:13.649Z,64.33
2022-11-27T02:42:43.759Z,63.93
2022-11-27T02:45:15.306Z,64.29
2022-11-27T02:47:46.036Z,63.85
2022-11-27T02:50:19.606Z,63.88
2022-11-27T02:52:48.972Z,64.22
2022-11-27T02:55:19.267Z,64.24
2022-11-27T02:57:47.936Z,64.88
2022-11-27T03:00:18.239Z,64.65
2022-11-27T03:02:48.600Z,64.58
2022-11-27T03:05:18.901Z,64.21
2022-11-27T03:07:51.129Z,64.46
2022-11-27T03:10:22.028Z,64.07
2022-11-27T03:12:50.288Z,64.00
2022-11-27T03:15:20.224Z,64.30
2022-11-27T03:17:53.433Z,64.98
2022-11-27T03:20:23.205Z,64.47
2022-11-27T03:22:51.059Z,64.57
2022-11-27T03:25:18.845Z,64.63
2022-11-27T03:27:51.338Z,65.52
2022-11-27T03:30:20.452Z,65.99
2022-11-27T03:32:48.286Z,66.02
2022-11-27T03:35:18.715Z,65.98
2022-11-27T03:37:46.585Z,66.30
2022-11-27T03:40:15.723Z,66.60
2022-11-27T03:42:51.881Z,66.36
2022-11-27T03:45:29.644Z,65.91
2022-11-27T03:48:07.786Z,66.29
2022-11-27T03:50:43.309Z,65.71
2022-11-27T03:53:14.615Z,65.61
2022-11-27T03:55:48.140Z,65.18
2022-11-27T03:58:18.999Z,64.78
2022-11-27T04:00:49.946Z,65.16
2022-11-27T04:03:24.791Z,65.42
2022-11-27T04:05:53.052Z,66.14
2022-11-27T04:08:21.055Z,65.96
2022-11-27T04:10:49.084Z,66.34
2022-11-27T04:13:16.977Z,66.25
2022-11-27T04:15:44.893Z,65.35
2022-11-27T04:18:14.163Z,63.33
2022-11-27T04:20:41.960Z,62.68
2022-11-27T04:23:10.057Z,61.86
2022-11-27T04:25:37.863Z,62.20
2022-11-27T04:28:05.628Z,62.85
2022-11-27T04:30:33.452Z,62.80
2022-11-27T04:33:01.238Z,63.10
2022-11-27T04:35:30.377Z,62.63
2022-11-27T04:37:58.368Z,62.68
2022-11-27T04:40:26.348Z,61.88
2022-11-27T04:42:54.158Z,61.39
2022-11-27T04:45:21.976Z,61.00
2022-11-27T04:47:49.720Z,60.46
2022-11-27T04:50:17.505Z,60.61
2022-11-27T04:52:46.697Z,60.50
2022-11-27T04:55:14.517Z,59.69
2022-11-27T04:57:42.312Z,59.26
2022-11-27T05:00:11.144Z,59.02
2022-11-27T05:02:39.567Z,59.06
2022-11-27T05:05:07.926Z,59.02
2022-11-27T05:07:35.927Z,58.54
2022-11-27T05:10:05.491Z,58.59
2022-11-27T05:12:33.280Z,58.35
2022-11-27T05:15:04.472Z,58.22
2022-11-27T05:17:32.709Z,57.80
2022-11-27T05:20:00.529Z,58.30
2022-11-27T05:22:28.435Z,57.74
2022-11-27T05:24:56.185Z,57.62
2022-11-27T05:27:25.470Z,57.15
2022-11-27T05:29:53.261Z,57.05
2022-11-27T05:32:21.000Z,56.31
2022-11-27T05:34:49.654Z,56.57
2022-11-27T05:37:19.768Z,56.60
2022-11-27T05:39:47.956Z,55.87
2022-11-27T05:42:15.719Z,55.95
2022-11-27T05:44:44.795Z,55.44
2022-11-27T05:47:12.578Z,55.57
2022-11-27T05:49:40.293Z,55.50
2022-11-27T05:52:08.089Z,55.86
2022-11-27T05:54:35.827Z,55.99
2022-11-27T05:57:03.647Z,55.65
2022-11-27T05:59:31.412Z,55.40
2022-11-27T06:02:00.597Z,56.79
2022-11-27T06:04:28.358Z,57.02
2022-11-27T06:06:56.180Z,56.66
2022-11-27T06:09:24.060Z,56.63
2022-11-27T06:11:51.834Z,56.37
2022-11-27T06:14:19.567Z,55.94
2022-11-27T06:16:47.610Z,56.15
2022-11-27T06:19:16.838Z,56.36
2022-11-27T06:21:46.436Z,56.43
2022-11-27T06:24:14.338Z,56.27
2022-11-27T06:26:42.143Z,56.59
2022-11-27T06:29:10.730Z,57.10
2022-11-27T06:31:38.992Z,57.46
2022-11-27T06:34:07.495Z,57.06
2022-11-27T06:36:40.011Z,55.86
2022-11-27T06:39:09.521Z,56.83
2022-11-27T06:41:37.425Z,56.23
2022-11-27T06:44:05.485Z,55.97
2022-11-27T06:46:33.271Z,57.15
2022-11-27T06:49:01.980Z,56.97
2022-11-27T06:51:31.471Z,57.52
2022-11-27T06:54:02.448Z,56.66
2022-11-27T06:56:31.293Z,56.88
2022-11-27T06:59:00.537Z,56.77
2022-11-27T07:01:30.108Z,57.50
2022-11-27T07:03:58.284Z,57.43
2022-11-27T07:06:27.707Z,58.70
2022-11-27T07:08:56.470Z,57.99
2022-11-27T07:11:26.859Z,58.11
2022-11-27T07:13:56.430Z,58.57
2022-11-27T07:16:24.678Z,59.08
2022-11-27T07:18:54.044Z,58.87
2022-11-27T07:21:22.279Z,58.72
2022-11-27T07:23:50.044Z,59.23
2022-11-27T07:26:19.514Z,58.17
2022-11-27T07:28:49.098Z,57.41
2022-11-27T07:31:19.013Z,57.66
2022-11-27T07:33:46.954Z,57.86
2022-11-27T07:36:16.418Z,57.77
2022-11-27T07:38:44.158Z,57.57
2022-11-27T07:41:12.363Z,56.98
2022-11-27T07:43:40.811Z,56.71
2022-11-27T07:46:13.276Z,56.69
2022-11-27T07:48:41.143Z,55.93
2022-11-27T07:51:10.205Z,55.91
2022-11-27T07:53:38.487Z,55.68
2022-11-27T07:56:06.609Z,55.70
2022-11-27T07:58:34.393Z,55.48
2022-11-27T08:01:02.333Z,55.62
2022-11-27T08:03:31.597Z,55.78
2022-11-27T08:05:59.319Z,55.79
2022-11-27T08:08:27.071Z,56.16
2022-11-27T08:10:54.877Z,55.74
2022-11-27T08:13:22.625Z,55.97
2022-11-27T08:15:50.387Z,57.30
2022-11-27T08:18:18.121Z,56.18
2022-11-27T08:20:47.220Z,55.52
2022-11-27T08:23:14.971Z,54.88
2022-11-27T08:25:42.749Z,54.78
2022-11-27T08:28:10.600Z,55.01
2022-11-27T08:30:38.410Z,54.39
2022-11-27T08:33:06.201Z,54.81
2022-11-27T08:35:34.188Z,54.12
2022-11-27T08:38:03.621Z,53.92
2022-11-27T08:40:31.388Z,53.60
2022-11-27T08:42:59.490Z,53.06
2022-11-27T08:45:27.253Z,52.63
2022-11-27T08:47:55.028Z,52.82
2022-11-27T08:50:22.727Z,52.57
2022-11-27T08:52:50.527Z,52.63
2022-11-27T08:55:19.638Z,52.01
2022-11-27T08:57:47.439Z,51.25
2022-11-27T09:00:16.200Z,51.00
2022-11-27T09:02:44.000Z,50.86
2022-11-27T09:05:12.091Z,51.39
2022-11-27T09:07:40.902Z,51.53
2022-11-27T09:10:09.391Z,50.99
2022-11-27T09:12:43.188Z,49.65
2022-11-27T09:15:12.106Z,49.25
2022-11-27T09:17:39.970Z,49.64
2022-11-27T09:20:09.044Z,49.77
2022-11-27T09:22:37.008Z,49.68
2022-11-27T09:25:05.174Z,49.08
2022-11-27T09:27:32.881Z,48.51
2022-11-27T09:30:02.211Z,48.34
2022-11-27T09:32:29.927Z,47.52
2022-11-27T09:34:57.894Z,47.47
2022-11-27T09:37:25.708Z,47.53
2022-11-27T09:39:53.451Z,47.49
2022-11-27T09:42:36.991Z,47.13
2022-11-27T09:45:08.580Z,47.46
2022-11-27T09:47:41.820Z,47.24
2022-11-27T09:50:14.385Z,46.80
2022-11-27T09:52:44.776Z,46.67
2022-11-27T09:55:16.400Z,47.31
2022-11-27T09:57:48.581Z,47.24
2022-11-27T10:00:19.233Z,48.10
2022-11-27T10:02:48.133Z,48.21
2022-11-27T10:05:20.332Z,47.02
2022-11-27T10:08:13.003Z,47.30
2022-11-27T10:10:44.801Z,46.79
2022-11-27T10:13:23.842Z,46.52
2022-11-27T10:15:57.145Z,46.16
2022-11-27T10:18:32.346Z,46.87
2022-11-27T10:21:04.922Z,45.76
2022-11-27T10:23:41.720Z,45.02
2022-11-27T10:26:16.604Z,45.35
2022-11-27T10:28:49.776Z,45.21
2022-11-27T10:31:22.219Z,44.63
2022-11-27T10:33:52.518Z,44.14
2022-11-27T10:36:28.480Z,44.11
2022-11-27T10:38:57.773Z,43.89
2022-11-27T10:44:29.153Z,42.54
2022-11-27T10:47:02.319Z,42.40
2022-11-27T10:49:30.192Z,41.71
2022-11-27T10:51:58.075Z,41.57
2022-11-27T10:54:29.202Z,42.03
2022-11-27T10:57:29.432Z,41.34
2022-11-27T11:00:06.236Z,40.30
2022-11-27T11:02:37.823Z,40.35
2022-11-27T11:05:35.012Z,39.25
2022-11-27T11:08:04.932Z,38.95
2022-11-27T11:10:35.423Z,39.63
2022-11-27T11:13:09.795Z,40.45
2022-11-27T11:15:51.407Z,41.03
2022-11-27T11:18:21.467Z,42.47
2022-11-27T11:20:51.279Z,42.55
2022-11-27T11:23:34.245Z,42.24
2022-11-27T11:26:06.414Z,42.05
2022-11-27T11:28:39.580Z,42.38
2022-11-27T11:31:10.510Z,42.90
2022-11-27T11:33:49.463Z,42.34
2022-11-27T11:36:17.446Z,42.17
2022-11-27T11:38:46.751Z,41.70
2022-11-27T11:41:17.924Z,41.07
2022-11-27T11:43:55.709Z,41.71
2022-11-27T11:46:26.114Z,42.16
2022-11-27T11:49:03.159Z,41.34
2022-11-27T11:51:56.832Z,41.22
2022-11-27T11:54:40.086Z,40.82
2022-11-27T11:57:25.235Z,40.06
2022-11-27T11:59:58.920Z,39.73
2022-11-27T12:02:39.280Z,40.17
2022-11-27T12:05:32.308Z,39.64
2022-11-27T12:08:25.336Z,39.69
2022-11-27T12:10:58.748Z,40.26
2022-11-27T12:13:38.776Z,39.79
2022-11-27T12:16:10.669Z,40.07
2022-11-27T12:18:49.547Z,40.07
2022-11-27T12:21:19.880Z,39.67
2022-11-27T12:23:55.198Z,39.60
2022-11-27T12:26:30.118Z,39.58
2022-11-27T12:29:36.630Z,39.44
2022-11-27T12:32:21.585Z,38.97
2022-11-27T12:35:00.150Z,38.50
2022-11-27T12:37:42.188Z,37.75
2022-11-27T12:40:26.052Z,37.59
2022-11-27T12:43:00.338Z,37.83
2022-11-27T12:45:31.983Z,36.68
2022-11-27T12:48:02.748Z,37.58
2022-11-27T12:50:35.763Z,37.20
2022-11-27T12:53:11.648Z,37.43
2022-11-27T12:55:41.804Z,37.68
2022-11-27T12:58:17.428Z,37.41
2022-11-27T13:00:45.298Z,36.36
2022-11-27T13:03:19.948Z,36.88
2022-11-27T13:05:50.864Z,38.00
2022-11-27T13:08:24.383Z,38.83
2022-11-27T13:10:55.702Z,38.33
2022-11-27T13:13:24.930Z,38.44
2022-11-27T13:15:56.071Z,39.33
2022-11-27T13:18:31.305Z,39.63
2022-11-27T13:21:00.931Z,39.73
2022-11-27T13:23:33.267Z,39.82
2022-11-27T13:26:04.453Z,40.23
2022-11-27T13:28:37.421Z,40.35
2022-11-27T13:31:06.202Z,39.95
2022-11-27T13:33:37.927Z,40.38
2022-11-27T13:36:08.987Z,40.78
2022-11-27T13:38:41.858Z,39.95
2022-11-27T13:41:09.754Z,40.56
2022-11-27T13:43:43.282Z,40.36
2022-11-27T13:46:20.850Z,40.07
2022-11-27T13:48:52.698Z,40.19
2022-11-27T13:51:26.693Z,40.05
2022-11-27T13:54:08.138Z,39.85
2022-11-27T13:56:35.935Z,39.84
2022-11-27T13:59:14.442Z,39.78
2022-11-27T14:01:54.588Z,40.25
2022-11-27T14:04:22.427Z,39.54
2022-11-27T14:06:53.792Z,39.52
2022-11-27T14:09:33.743Z,40.04
2022-11-27T14:12:01.742Z,39.47
2022-11-27T14:14:29.690Z,38.71
2022-11-27T14:16:58.899Z,39.06
2022-11-27T14:19:34.382Z,38.66
2022-11-27T14:22:03.288Z,38.92
2022-11-27T14:24:44.109Z,39.67
2022-11-27T14:27:20.429Z,39.20
2022-11-27T14:29:48.392Z,39.55
2022-11-27T14:32:17.435Z,39.37
2022-11-27T14:34:45.609Z,39.27
2022-11-27T14:37:24.916Z,40.21
2022-11-27T14:39:54.288Z,41.11
2022-11-27T14:42:28.132Z,40.72
2022-11-27T14:45:03.758Z,40.20
2022-11-27T14:47:31.738Z,40.21
2022-11-27T14:49:59.776Z,40.29
2022-11-27T14:52:28.152Z,40.17
2022-11-27T14:54:58.422Z,40.60
2022-11-27T14:57:27.704Z,40.56
2022-11-27T15:00:06.177Z,40.49
2022-11-27T15:02:34.781Z,40.87
2022-11-27T15:05:04.396Z,41.17
2022-11-27T15:07:38.068Z,40.86
2022-11-27T15:10:24.307Z,40.52
2022-11-27T15:12:52.135Z,40.68
2022-11-27T15:15:21.736Z,41.19
2022-11-27T15:17:51.597Z,41.34
2022-11-27T15:20:24.593Z,41.45
2022-11-27T15:22:53.438Z,42.20
2022-11-27T15:25:36.687Z,42.19
2022-11-27T15:28:06.224Z,43.02
2022-11-27T15:30:34.298Z,43.68
2022-11-27T15:33:02.164Z,44.29
2022-11-27T15:35:32.440Z,44.59
2022-11-27T15:38:04.252Z,44.24
2022-11-27T15:40:35.967Z,44.74
2022-11-27T15:43:04.073Z,44.62
2022-11-27T15:45:32.992Z,44.34
2022-11-27T15:48:01.920Z,44.63
2022-11-27T15:50:30.631Z,45.23
2022-11-27T15:53:00.815Z,45.68
2022-11-27T15:55:28.756Z,45.24
2022-11-27T15:57:57.861Z,46.42
2022-11-27T16:00:26.009Z,46.91
2022-11-27T16:02:54.031Z,47.17
2022-11-27T16:05:22.069Z,48.72
2022-11-27T16:07:54.663Z,48.99
2022-11-27T16:10:23.103Z,49.89
2022-11-27T16:12:54.797Z,50.78
2022-11-27T16:15:26.570Z,51.39
2022-11-27T16:17:56.688Z,51.74
2022-11-27T16:20:24.520Z,51.77
2022-11-27T16:22:52.472Z,51.91
2022-11-27T16:25:20.366Z,52.28
2022-11-27T16:27:48.067Z,51.65
2022-11-27T16:30:16.241Z,51.59
2022-11-27T16:32:45.364Z,51.63
2022-11-27T16:35:13.906Z,51.27
2022-11-27T16:37:42.434Z,51.08
2022-11-27T16:40:11.570Z,51.02
2022-11-27T16:42:39.957Z,50.64
2022-11-27T16:45:09.043Z,50.53
2022-11-27T16:47:37.069Z,50.66
2022-11-27T16:50:09.737Z,50.88
2022-11-27T16:52:37.530Z,51.74
2022-11-27T16:55:06.087Z,50.67
2022-11-27T16:57:33.854Z,50.67
2022-11-27T17:00:01.637Z,50.74
2022-11-27T17:02:30.300Z,50.44
2022-11-27T17:04:58.111Z,50.41
2022-11-27T17:07:27.280Z,50.71
2022-11-27T17:09:55.066Z,50.83
2022-11-27T17:12:22.877Z,51.29
2022-11-27T17:14:50.640Z,51.56
2022-11-27T17:17:18.427Z,52.05
2022-11-27T17:19:48.990Z,52.95
2022-11-27T17:22:18.654Z,53.17
2022-11-27T17:24:47.999Z,54.37
2022-11-27T17:27:16.539Z,54.07
2022-11-27T17:29:44.299Z,53.79
2022-11-27T17:32:12.982Z,53.93
2022-11-27T17:34:40.791Z,54.23
2022-11-27T17:37:10.066Z,54.45
2022-11-27T17:39:40.664Z,53.75
2022-11-27T17:42:13.906Z,53.74
2022-11-27T17:44:43.139Z,53.75
2022-11-27T17:47:10.903Z,54.00
2022-11-27T17:49:39.896Z,53.86
2022-11-27T17:52:08.578Z,54.11
2022-11-27T17:54:38.289Z,54.72
2022-11-27T17:57:06.405Z,54.63
2022-11-27T17:59:36.381Z,54.12
2022-11-27T18:02:04.241Z,53.91
2022-11-27T18:04:32.307Z,53.90
2022-11-27T18:07:00.085Z,53.59
2022-11-27T18:09:29.945Z,53.51
2022-11-27T18:11:58.841Z,53.98
2022-11-27T18:14:26.671Z,53.95
2022-11-27T18:16:56.404Z,54.00
2022-11-27T18:19:24.289Z,53.64
2022-11-27T18:21:52.000Z,53.89
2022-11-27T18:24:24.317Z,53.77
2022-11-27T18:27:07.695Z,53.42
2022-11-27T18:29:37.177Z,53.28
2022-11-27T18:32:06.771Z,52.93
2022-11-27T18:34:35.222Z,52.92
2022-11-27T18:37:03.073Z,52.73
2022-11-27T18:39:31.352Z,52.59
2022-11-27T18:41:59.286Z,53.52
2022-11-27T18:44:27.329Z,53.38
2022-11-27T18:46:55.208Z,53.31
2022-11-27T18:49:25.260Z,53.41
2022-11-27T18:51:54.681Z,53.14
2022-11-27T18:54:22.797Z,53.33
2022-11-27T18:56:51.516Z,53.68
2022-11-27T18:59:19.567Z,53.23
2022-11-27T19:01:47.552Z,52.65
2022-11-27T19:04:15.995Z,52.45
2022-11-27T19:06:45.485Z,52.93
2022-11-27T19:09:15.035Z,53.60
2022-11-27T19:11:44.185Z,52.75
2022-11-27T19:14:11.986Z,52.67
2022-11-27T19:16:43.876Z,53.15
2022-11-27T19:19:52.193Z,52.84
2022-11-27T19:22:03.318Z,52.72
2022-11-27T19:24:31.167Z,52.62
2022-11-27T19:26:59.045Z,53.01
2022-11-27T19:29:26.970Z,53.54
2022-11-27T19:31:57.909Z,54.03
2022-11-27T19:34:25.890Z,54.09
2022-11-27T19:36:53.963Z,53.86
2022-11-27T19:39:23.362Z,53.43
2022-11-27T19:41:51.603Z,53.17
2022-11-27T19:44:19.677Z,53.17
2022-11-27T19:46:48.865Z,52.68
2022-11-27T19:49:18.200Z,53.54
2022-11-27T19:51:46.976Z,53.90
2022-11-27T19:54:15.696Z,53.38
2022-11-27T19:56:44.926Z,53.86
2022-11-27T19:59:13.532Z,53.15
2022-11-27T20:01:42.471Z,52.33
2022-11-27T20:04:11.630Z,52.38
2022-11-27T20:06:39.689Z,51.99
2022-11-27T20:09:08.254Z,51.30
2022-11-27T20:11:36.418Z,52.21
2022-11-27T20:14:07.186Z,51.43
2022-11-27T20:16:36.200Z,51.34
2022-11-27T20:19:06.116Z,50.62
2022-11-27T20:21:39.378Z,51.57
2022-11-27T20:24:07.730Z,51.53
2022-11-27T20:26:41.309Z,51.88
2022-11-27T20:29:12.475Z,51.59
2022-11-27T20:31:41.848Z,51.02
2022-11-27T20:34:12.453Z,50.82
2022-11-27T20:36:40.970Z,50.43
2022-11-27T20:39:14.045Z,49.63
2022-11-27T20:41:45.675Z,48.97
2022-11-27T20:44:15.799Z,48.25
2022-11-27T20:46:43.582Z,48.43
2022-11-27T20:49:11.973Z,47.74
2022-11-27T20:51:40.001Z,47.63
2022-11-27T20:54:09.651Z,47.89
2022-11-27T20:56:37.643Z,47.63
2022-11-27T20:59:07.787Z,47.26
2022-11-27T21:01:38.568Z,47.17
2022-11-27T21:04:10.108Z,47.68
2022-11-27T21:06:43.683Z,47.30
2022-11-27T21:09:13.867Z,48.87
2022-11-27T21:11:42.663Z,48.43
2022-11-27T21:14:12.382Z,48.41
2022-11-27T21:16:44.931Z,47.98
2022-11-27T21:19:16.003Z,48.24
2022-11-27T21:21:43.967Z,48.40
2022-11-27T21:24:12.239Z,48.39
2022-11-27T21:26:41.537Z,48.78
2022-11-27T21:29:10.234Z,48.16
2022-11-27T21:31:41.636Z,48.97
2022-11-27T21:34:13.240Z,48.31
2022-11-27T21:36:41.135Z,49.00
2022-11-27T21:39:10.220Z,49.32
2022-11-27T21:41:38.082Z,49.47
2022-11-27T21:44:06.618Z,50.14
2022-11-27T21:46:34.922Z,50.35
2022-11-27T21:49:06.343Z,50.81
2022-11-27T21:51:35.519Z,50.41
2022-11-27T21:54:07.712Z,50.96
2022-11-27T21:56:37.682Z,50.99
2022-11-27T21:59:05.574Z,51.16
2022-11-27T22:01:33.701Z,50.85
2022-11-27T22:04:02.523Z,51.01
2022-11-27T22:06:32.051Z,51.01
2022-11-27T22:09:01.140Z,51.12
2022-11-27T22:11:31.352Z,51.47
2022-11-27T22:14:01.207Z,51.25
2022-11-27T22:16:30.326Z,51.34
2022-11-27T22:18:59.481Z,50.86
2022-11-27T22:21:28.332Z,50.83
2022-11-27T22:23:56.286Z,50.94
2022-11-27T22:26:26.138Z,50.46
2022-11-27T22:28:54.069Z,50.73
2022-11-27T22:31:24.109Z,50.91
2022-11-27T22:33:52.222Z,50.72
2022-11-27T22:36:23.357Z,51.08
2022-11-27T22:38:53.053Z,50.41
2022-11-27T22:41:22.524Z,50.77
2022-11-27T22:43:52.083Z,50.95
2022-11-27T22:46:22.453Z,50.83
2022-11-27T22:48:54.698Z,51.31
2022-11-27T22:51:23.951Z,51.31
2022-11-27T22:53:51.908Z,51.69
2022-11-27T22:56:20.092Z,51.90
2022-11-27T22:58:48.880Z,51.99
2022-11-27T23:01:21.087Z,51.68
2022-11-27T23:03:49.108Z,50.97
2022-11-27T23:06:19.602Z,51.48
2022-11-27T23:08:48.347Z,52.76
2022-11-27T23:11:18.839Z,53.95
2022-11-27T23:13:49.910Z,54.93
2022-11-27T23:16:19.650Z,56.40
2022-11-27T23:18:47.485Z,57.74
2022-11-27T23:21:17.021Z,58.93
2022-11-27T23:23:45.238Z,60.27
2022-11-27T23:26:18.125Z,61.22
2022-11-27T23:28:47.163Z,62.92
2022-11-27T23:31:29.273Z,64.23
2022-11-27T23:34:01.240Z,63.36
2022-11-27T23:36:29.511Z,63.51
2022-11-27T23:38:57.275Z,63.10
2022-11-27T23:41:25.962Z,62.88
2022-11-27T23:43:55.008Z,62.68
2022-11-27T23:46:28.234Z,62.56
2022-11-27T23:48:56.877Z,62.50
2022-11-27T23:51:27.261Z,62.85
2022-11-27T23:53:55.399Z,63.52
2022-11-27T23:56:24.711Z,62.60
2022-11-27T23:58:52.743Z,62.07
